Time;durP1;ratioP1;P1;durP2;ratioP2;P2;SDS_P1;SDS_P2;PMS_P1;PMS_P2;Temp;Humidity;BMP_temperature;BMP_pressure;BME280_temperature;BME280_humidity;BME280_pressure;Samples;Min_cycle;Max_cycle;Signal;HPM_P1;HPM_P2
2022/06/07 00:00:45;;;;;;;8.48;1.65;;;14.60;99.90;;;;;;4183388;28;20175;-92
2022/06/07 00:02:46;;;;;;;8.70;1.20;;;14.60;99.90;;;;;;4166603;28;20607;-92
2022/06/07 00:04:47;;;;;;;6.68;1.33;;;14.60;99.90;;;;;;4183072;28;20209;-92
2022/06/07 00:06:47;;;;;;;3.22;1.25;;;14.50;99.90;;;;;;4166793;28;20207;-93
2022/06/07 00:08:49;;;;;;;4.47;1.42;;;14.50;99.90;;;;;;4183080;28;20234;-91
2022/06/07 00:10:50;;;;;;;4.32;1.30;;;14.50;99.90;;;;;;4166768;28;20180;-91
2022/06/07 00:12:51;;;;;;;6.22;1.30;;;14.50;99.90;;;;;;4166560;28;20160;-92
2022/06/07 00:14:52;;;;;;;3.63;1.33;;;14.50;99.90;;;;;;4166214;28;20271;-91
2022/06/07 00:16:54;;;;;;;5.30;1.40;;;14.50;99.90;;;;;;4166327;28;20203;-92
2022/06/07 00:18:55;;;;;;;2.70;1.45;;;14.50;99.90;;;;;;4199622;28;20187;-91
2022/06/07 00:20:55;;;;;;;4.82;1.65;;;14.40;99.90;;;;;;4166632;28;20270;-92
2022/06/07 00:22:58;;;;;;;4.43;1.35;;;14.40;99.90;;;;;;4166256;28;20242;-92
2022/06/07 00:24:58;;;;;;;4.18;1.40;;;14.40;99.90;;;;;;4166217;28;20180;-92
2022/06/07 00:26:59;;;;;;;4.70;1.48;;;14.40;99.90;;;;;;4166235;28;20691;-92
2022/06/07 00:29:01;;;;;;;5.00;1.67;;;14.20;99.90;;;;;;4182849;28;20567;-92
2022/06/07 00:31:02;;;;;;;5.18;1.83;;;14.30;99.90;;;;;;4166458;28;20172;-92
2022/06/07 00:33:03;;;;;;;3.67;1.67;;;14.20;99.90;;;;;;4182800;28;20183;-92
2022/06/07 00:35:06;;;;;;;4.82;1.95;;;14.20;99.90;;;;;;4166232;28;20640;-93
2022/06/07 00:37:07;;;;;;;5.03;1.60;;;14.20;99.90;;;;;;4182362;28;20517;-92
2022/06/07 00:39:08;;;;;;;7.13;1.85;;;14.20;99.90;;;;;;4166047;28;20176;-93
2022/06/07 00:41:10;;;;;;;3.80;1.35;;;14.20;99.90;;;;;;4182424;28;20255;-93
2022/06/07 00:43:11;;;;;;;6.05;1.80;;;14.20;99.90;;;;;;4165883;28;20660;-92
2022/06/07 00:45:18;;;;;;;5.15;1.90;;;14.20;99.90;;;;;;4182636;28;20182;-92
2022/06/07 00:47:25;;;;;;;6.13;1.73;;;14.20;99.90;;;;;;4166138;28;20180;-93
2022/06/07 00:49:35;;;;;;;7.60;1.80;;;14.10;99.90;;;;;;4166071;28;20168;-92
2022/06/07 00:51:35;;;;;;;6.22;1.70;;;14.10;99.90;;;;;;4166044;28;20184;-91
2022/06/07 00:53:37;;;;;;;7.50;1.98;;;14.00;99.90;;;;;;4165885;28;20264;-93
2022/06/07 00:55:56;;;;;;;3.10;1.60;;;14.00;99.90;;;;;;4182482;28;20176;-92
2022/06/07 00:57:57;;;;;;;3.50;1.80;;;13.90;99.90;;;;;;4182460;28;20237;-92
2022/06/07 01:00:11;;;;;;;6.57;1.85;;;13.90;99.90;;;;;;4167397;28;20172;-92
2022/06/07 01:02:13;;;;;;;7.55;1.80;;;13.90;99.90;;;;;;4165960;28;20219;-93
2022/06/07 01:04:15;;;;;;;5.75;1.92;;;13.90;99.90;;;;;;4166071;28;20216;-92
2022/06/07 01:11:10;;;;;;;6.22;1.90;;;14.00;99.90;;;;;;4162137;28;20183;-93
2022/06/07 01:13:14;;;;;;;3.42;1.50;;;14.00;99.90;;;;;;4165551;28;20179;-92
2022/06/07 01:15:15;;;;;;;5.13;1.85;;;13.90;99.90;;;;;;4165799;28;20786;-92
2022/06/07 01:17:19;;;;;;;5.72;2.08;;;13.90;99.90;;;;;;4181948;28;20175;-92
2022/06/07 01:19:20;;;;;;;7.45;2.10;;;13.80;99.90;;;;;;4165510;28;20255;-94
2022/06/07 01:21:32;;;;;;;4.38;1.85;;;13.80;99.90;;;;;;4181906;28;20615;-93
2022/06/07 01:23:34;;;;;;;5.63;2.03;;;13.80;99.90;;;;;;4165538;28;20211;-92
2022/06/07 01:25:35;;;;;;;6.07;1.83;;;13.80;99.90;;;;;;4165324;28;20177;-93
2022/06/07 01:27:37;;;;;;;2.83;1.65;;;13.80;99.90;;;;;;4165465;28;20180;-93
2022/06/07 01:29:42;;;;;;;6.75;2.05;;;13.80;99.90;;;;;;4165410;28;20248;-92
2022/06/07 01:31:44;;;;;;;7.60;2.10;;;13.80;99.90;;;;;;4181800;28;20198;-92
2022/06/07 01:33:47;;;;;;;8.77;1.90;;;13.80;99.90;;;;;;4165529;28;20164;-91
2022/06/07 01:35:58;;;;;;;6.07;1.90;;;13.80;99.90;;;;;;4165171;28;20183;-92
2022/06/07 01:37:59;;;;;;;6.95;2.03;;;13.80;99.90;;;;;;4165144;28;20218;-92
2022/06/07 01:42:20;;;;;;;7.00;2.00;;;13.70;99.90;;;;;;4181708;28;20210;-93
2022/06/07 01:44:23;;;;;;;5.50;2.10;;;13.70;99.90;;;;;;4164852;28;20223;-91
2022/06/07 01:46:24;;;;;;;7.05;2.10;;;13.60;99.90;;;;;;4164950;28;20179;-91
2022/06/07 01:48:25;;;;;;;8.13;2.17;;;13.60;99.90;;;;;;4180861;28;20664;-93
2022/06/07 01:50:26;;;;;;;5.82;2.00;;;13.60;99.90;;;;;;4164990;28;20164;-92
2022/06/07 01:52:29;;;;;;;8.68;2.15;;;13.60;99.90;;;;;;4181415;28;20182;-91
2022/06/07 01:54:38;;;;;;;7.78;1.80;;;13.60;99.90;;;;;;4181534;28;20178;-92
2022/06/07 01:56:39;;;;;;;8.85;2.20;;;13.60;99.90;;;;;;4181696;28;20160;-93
2022/06/07 01:58:42;;;;;;;5.90;2.28;;;13.60;99.90;;;;;;4164883;28;20195;-91
2022/06/07 02:00:43;;;;;;;7.70;2.40;;;13.60;99.90;;;;;;4165268;28;20259;-93
2022/06/07 02:02:46;;;;;;;5.38;2.10;;;13.60;99.90;;;;;;4165026;28;20208;-91
2022/06/07 02:04:47;;;;;;;6.72;2.85;;;13.60;99.90;;;;;;4164975;28;20175;-91
2022/06/07 02:06:50;;;;;;;9.77;2.08;;;13.60;99.90;;;;;;4165093;28;20186;-92
2022/06/07 02:08:57;;;;;;;7.45;2.10;;;13.50;99.90;;;;;;4165744;28;20207;-93
2022/06/07 02:11:06;;;;;;;5.93;2.15;;;13.50;99.90;;;;;;4164830;28;20233;-92
2022/06/07 02:13:08;;;;;;;5.03;1.67;;;13.60;99.90;;;;;;4164728;28;20170;-92
2022/06/07 02:15:09;;;;;;;4.45;1.92;;;13.60;99.90;;;;;;4164774;28;20188;-93
2022/06/07 02:17:10;;;;;;;6.15;1.83;;;13.50;99.90;;;;;;4180846;28;20199;-93
2022/06/07 02:19:22;;;;;;;6.85;1.90;;;13.50;99.90;;;;;;4166281;28;20219;-94
2022/06/07 02:21:23;;;;;;;5.20;2.00;;;13.50;99.90;;;;;;4164890;28;20160;-92
2022/06/07 02:23:24;;;;;;;10.65;2.20;;;13.50;99.90;;;;;;4164489;28;20216;-91
2022/06/07 02:25:26;;;;;;;7.13;2.20;;;13.50;99.90;;;;;;4164521;28;20185;-91
2022/06/07 02:27:27;;;;;;;9.23;2.00;;;13.40;99.90;;;;;;4164456;28;20665;-93
2022/06/07 02:29:33;;;;;;;5.47;2.08;;;13.50;99.90;;;;;;4164622;28;20252;-92
2022/06/07 02:31:38;;;;;;;5.70;1.90;;;13.50;99.90;;;;;;4164714;28;20204;-92
2022/06/07 02:33:40;;;;;;;4.53;1.80;;;13.50;99.90;;;;;;4181226;28;20237;-93
2022/06/07 02:35:43;;;;;;;6.72;2.08;;;13.50;99.90;;;;;;4180864;28;20187;-94
2022/06/07 02:37:44;;;;;;;7.43;2.00;;;13.50;99.90;;;;;;4164135;28;20196;-92
2022/06/07 02:39:45;;;;;;;7.97;1.73;;;13.50;99.90;;;;;;4164436;28;20180;-93
2022/06/07 02:41:48;;;;;;;6.35;2.13;;;13.50;99.90;;;;;;4164649;28;20183;-91
2022/06/07 02:43:48;;;;;;;3.83;1.80;;;13.50;99.90;;;;;;4180881;28;20695;-91
2022/06/07 02:45:49;;;;;;;5.20;1.65;;;13.60;99.90;;;;;;4181002;28;20266;-92
2022/06/07 02:47:50;;;;;;;6.70;1.98;;;13.60;99.90;;;;;;4164427;28;20200;-93
2022/06/07 02:49:54;;;;;;;7.95;2.08;;;13.60;99.90;;;;;;4164702;28;20172;-93
2022/06/07 02:51:55;;;;;;;8.27;1.70;;;13.60;99.90;;;;;;4164654;28;20202;-93
2022/06/07 02:53:56;;;;;;;5.70;2.05;;;13.60;99.90;;;;;;4164548;28;20224;-93
2022/06/07 02:55:59;;;;;;;5.63;1.95;;;13.80;99.90;;;;;;4181100;28;20265;-92
2022/06/07 02:58:00;;;;;;;8.15;2.15;;;13.70;99.90;;;;;;4164466;28;20260;-94
2022/06/07 03:00:04;;;;;;;3.33;1.92;;;13.80;99.90;;;;;;4165806;28;20524;-92
2022/06/07 03:02:05;;;;;;;6.35;2.03;;;13.80;99.90;;;;;;4167530;28;20168;-93
2022/06/07 03:04:08;;;;;;;3.80;1.98;;;13.80;99.90;;;;;;4183980;28;20297;-91
2022/06/07 03:06:12;;;;;;;8.15;2.28;;;13.90;99.90;;;;;;4184067;28;20175;-92
2022/06/07 03:08:15;;;;;;;6.45;2.10;;;14.00;99.90;;;;;;4168068;28;20211;-92
2022/06/07 03:10:17;;;;;;;8.68;2.00;;;14.00;99.90;;;;;;4167486;28;20235;-92
2022/06/07 03:12:18;;;;;;;4.65;1.90;;;14.00;99.90;;;;;;4183813;28;20595;-93
2022/06/07 03:14:19;;;;;;;3.38;2.10;;;14.00;99.90;;;;;;4167351;28;20179;-92
2022/06/07 03:16:20;;;;;;;5.00;2.03;;;14.10;99.90;;;;;;4167231;28;20263;-92
2022/06/07 03:18:22;;;;;;;8.23;2.20;;;14.10;99.90;;;;;;4167465;28;20660;-93
2022/06/07 03:20:23;;;;;;;6.28;2.08;;;14.10;99.90;;;;;;4183788;28;20229;-93
2022/06/07 03:22:24;;;;;;;8.18;2.03;;;14.10;99.90;;;;;;4183823;28;20628;-92
2022/06/07 03:24:26;;;;;;;7.18;2.03;;;14.20;99.90;;;;;;4167455;28;20207;-92
2022/06/07 03:26:29;;;;;;;5.70;1.92;;;14.20;99.90;;;;;;4167431;28;20175;-93
2022/06/07 03:28:40;;;;;;;3.72;1.65;;;14.20;99.90;;;;;;4183725;28;20282;-92
2022/06/07 03:30:45;;;;;;;7.60;1.92;;;14.40;99.90;;;;;;4167353;28;20176;-92
2022/06/07 03:32:52;;;;;;;6.45;1.98;;;14.30;99.90;;;;;;4167968;28;20532;-92
2022/06/07 03:34:54;;;;;;;6.20;2.00;;;14.40;99.90;;;;;;4183580;28;20174;-92
2022/06/07 03:36:56;;;;;;;4.75;2.10;;;14.40;99.90;;;;;;4167119;28;20640;-93
2022/06/07 03:38:59;;;;;;;10.57;1.98;;;14.30;99.90;;;;;;4166916;28;20196;-92
2022/06/07 03:41:03;;;;;;;4.50;1.70;;;14.30;99.90;;;;;;4183732;28;20179;-92
2022/06/07 03:43:06;;;;;;;4.82;1.70;;;14.40;99.90;;;;;;4166897;28;20212;-92
2022/06/07 03:45:08;;;;;;;6.28;1.60;;;14.40;99.90;;;;;;4167300;28;20172;-93
2022/06/07 03:47:11;;;;;;;4.28;1.88;;;14.40;99.90;;;;;;4183790;28;20213;-93
2022/06/07 03:49:14;;;;;;;8.55;1.58;;;14.40;99.90;;;;;;4183487;28;20782;-94
2022/06/07 03:51:17;;;;;;;7.70;2.17;;;14.60;99.90;;;;;;4167226;28;20198;-93
2022/06/07 03:53:18;;;;;;;4.70;1.60;;;14.60;99.90;;;;;;4167094;28;20226;-93
2022/06/07 03:55:20;;;;;;;2.88;1.70;;;14.60;99.90;;;;;;4167326;28;20203;-92
2022/06/07 03:57:34;;;;;;;6.82;2.03;;;14.60;99.90;;;;;;4168646;28;20222;-92
2022/06/07 03:59:38;;;;;;;6.35;1.73;;;14.60;99.90;;;;;;4167240;28;20258;-92
2022/06/07 04:01:39;;;;;;;3.78;1.60;;;14.70;99.90;;;;;;4183459;28;20745;-91
2022/06/07 04:03:43;;;;;;;8.07;1.70;;;14.80;99.90;;;;;;4166747;28;20220;-93
2022/06/07 04:05:45;;;;;;;5.35;1.48;;;14.90;99.90;;;;;;4183141;28;20168;-91
2022/06/07 04:10:09;;;;;;;5.20;1.70;;;14.90;99.90;;;;;;4182894;28;20179;-92
2022/06/07 04:12:19;;;;;;;5.22;1.67;;;14.80;99.90;;;;;;4182948;28;20536;-93
2022/06/07 04:14:20;;;;;;;6.07;1.45;;;14.80;99.90;;;;;;4182884;28;20182;-93
2022/06/07 04:16:25;;;;;;;6.03;1.40;;;14.90;99.90;;;;;;4166776;28;20262;-92
2022/06/07 04:18:31;;;;;;;4.93;1.40;;;14.90;99.90;;;;;;4182919;28;20659;-93
2022/06/07 04:20:33;;;;;;;7.00;1.90;;;15.00;99.90;;;;;;4182963;28;20171;-92
2022/06/07 04:22:35;;;;;;;4.75;1.60;;;15.00;99.90;;;;;;4166347;28;20164;-92
2022/06/07 04:24:42;;;;;;;3.05;1.33;;;15.10;99.90;;;;;;4167108;28;20188;-92
2022/06/07 04:26:42;;;;;;;3.45;1.38;;;15.20;99.90;;;;;;4182796;28;20187;-93
2022/06/07 04:28:44;;;;;;;7.60;1.40;;;15.40;99.90;;;;;;4166250;28;20193;-92
2022/06/07 04:30:47;;;;;;;4.13;1.30;;;15.50;99.90;;;;;;4166551;28;20172;-93
2022/06/07 04:32:51;;;;;;;5.40;1.30;;;15.60;99.90;;;;;;4166764;28;20199;-92
2022/06/07 04:34:57;;;;;;;2.80;1.40;;;15.50;99.90;;;;;;4166812;28;20195;-93
2022/06/07 04:36:59;;;;;;;6.30;1.10;;;15.50;99.90;;;;;;4182767;28;20171;-94
2022/06/07 04:39:05;;;;;;;4.20;1.35;;;15.60;99.90;;;;;;4182683;28;20198;-92
2022/06/07 04:41:15;;;;;;;5.28;1.60;;;15.60;99.90;;;;;;4182705;28;20164;-92
2022/06/07 04:43:19;;;;;;;4.85;1.80;;;15.70;99.90;;;;;;4166286;28;20223;-93
2022/06/07 04:45:21;;;;;;;3.65;1.15;;;15.80;99.90;;;;;;4182606;28;20176;-92
2022/06/07 04:47:36;;;;;;;4.55;1.33;;;15.80;99.90;;;;;;4182665;28;20183;-92
2022/06/07 04:49:39;;;;;;;6.78;1.20;;;15.80;99.90;;;;;;4166254;28;20176;-92
2022/06/07 04:51:40;;;;;;;3.72;1.08;;;15.80;99.90;;;;;;4166254;28;20624;-92
2022/06/07 04:53:46;;;;;;;2.50;1.20;;;15.80;99.90;;;;;;4166507;28;20320;-91
2022/06/07 04:55:47;;;;;;;6.85;1.33;;;15.90;99.90;;;;;;4165958;28;20168;-92
2022/06/07 04:57:48;;;;;;;5.90;1.30;;;16.00;99.90;;;;;;4182335;28;20219;-93
2022/06/07 04:59:52;;;;;;;5.00;1.38;;;16.00;99.90;;;;;;4182169;28;20171;-93
2022/06/07 05:01:53;;;;;;;3.03;0.93;;;16.00;99.90;;;;;;4182224;28;20569;-91
2022/06/07 05:03:58;;;;;;;3.70;1.08;;;15.90;99.90;;;;;;4166145;28;20254;-92
2022/06/07 05:05:59;;;;;;;3.53;1.20;;;16.00;99.90;;;;;;4165737;28;20172;-92
2022/06/07 05:08:00;;;;;;;2.90;0.90;;;16.10;99.90;;;;;;4165444;28;20196;-91
2022/06/07 05:10:01;;;;;;;2.25;0.90;;;16.10;99.90;;;;;;4165880;28;20627;-92
2022/06/07 05:12:09;;;;;;;3.47;1.00;;;16.20;99.90;;;;;;4182801;28;20700;-92
2022/06/07 05:14:14;;;;;;;6.40;1.20;;;16.20;99.90;;;;;;4182060;28;20184;-92
2022/06/07 05:16:19;;;;;;;5.80;1.13;;;16.20;99.90;;;;;;4182017;28;20178;-94
2022/06/07 05:18:20;;;;;;;5.50;1.42;;;16.20;99.90;;;;;;4165386;28;20216;-91
2022/06/07 05:20:23;;;;;;;2.40;0.95;;;16.30;99.90;;;;;;4165973;28;20172;-94
2022/06/07 05:22:30;;;;;;;2.72;1.00;;;16.40;99.90;;;;;;4165488;28;20557;-94
2022/06/07 05:24:34;;;;;;;3.65;1.05;;;16.50;99.90;;;;;;4165701;28;20278;-93
2022/06/07 05:26:40;;;;;;;4.05;0.90;;;16.50;99.90;;;;;;4165501;28;20168;-93
2022/06/07 05:28:43;;;;;;;6.15;1.20;;;16.60;99.90;;;;;;4165399;28;20188;-93
2022/06/07 05:30:46;;;;;;;4.80;1.08;;;16.60;99.90;;;;;;4165677;28;20633;-93
2022/06/07 05:33:07;;;;;;;3.83;1.17;;;16.70;99.90;;;;;;4171504;28;20187;-94
2022/06/07 05:35:17;;;;;;;4.28;1.10;;;16.70;99.90;;;;;;4166693;28;20180;-93
2022/06/07 05:37:34;;;;;;;3.72;1.17;;;16.80;99.90;;;;;;4167070;28;20222;-93
2022/06/07 05:39:48;;;;;;;7.25;1.10;;;16.80;99.90;;;;;;4167106;28;20168;-92
2022/06/07 05:41:49;;;;;;;3.92;1.17;;;16.90;99.90;;;;;;4181922;28;20186;-93
2022/06/07 05:43:54;;;;;;;2.85;1.15;;;17.00;99.90;;;;;;4165868;28;20735;-91
2022/06/07 05:46:02;;;;;;;4.10;1.30;;;17.00;99.90;;;;;;4166096;28;20182;-95
2022/06/07 05:48:23;;;;;;;3.85;0.98;;;16.90;99.90;;;;;;4168139;28;20200;-94
2022/06/07 05:50:26;;;;;;;4.28;1.10;;;17.00;99.90;;;;;;4181541;28;20259;-92
2022/06/07 05:52:31;;;;;;;2.35;1.00;;;17.10;99.90;;;;;;4165340;28;20196;-92
2022/06/07 05:54:38;;;;;;;6.05;1.45;;;17.20;99.90;;;;;;4181430;28;20172;-94
2022/06/07 05:56:40;;;;;;;2.53;1.10;;;17.30;99.90;;;;;;4164988;28;20263;-93
2022/06/07 05:58:41;;;;;;;3.25;1.10;;;17.40;99.90;;;;;;4181320;28;20639;-93
2022/06/07 06:00:47;;;;;;;2.60;1.08;;;17.40;99.90;;;;;;4181270;28;20171;-92
2022/06/07 06:02:53;;;;;;;5.32;1.13;;;17.50;99.90;;;;;;4165546;28;20226;-93
2022/06/07 06:05:07;;;;;;;5.30;1.30;;;17.70;99.90;;;;;;4166886;28;20179;-93
2022/06/07 06:07:11;;;;;;;6.47;1.20;;;17.90;99.90;;;;;;4165368;28;20180;-92
2022/06/07 06:11:38;;;;;;;6.47;1.17;;;18.10;99.90;;;;;;4181243;28;20176;-93
2022/06/07 06:13:59;;;;;;;3.65;1.20;;;18.30;99.90;;;;;;4167414;28;20184;-93
2022/06/07 06:16:05;;;;;;;2.63;0.90;;;18.30;99.90;;;;;;4164890;28;20203;-93
2022/06/07 06:18:09;;;;;;;3.75;0.95;;;18.30;99.90;;;;;;4165076;28;20194;-95
2022/06/07 06:20:14;;;;;;;3.33;0.90;;;18.30;99.90;;;;;;4165165;28;20176;-93
2022/06/07 06:22:20;;;;;;;1.95;1.10;;;18.40;99.90;;;;;;4165311;28;20215;-95
2022/06/07 06:24:28;;;;;;;3.60;0.93;;;18.60;99.90;;;;;;4165802;28;20191;-94
2022/06/07 06:26:30;;;;;;;3.53;1.10;;;18.50;99.90;;;;;;4164702;28;20573;-93
2022/06/07 06:28:33;;;;;;;4.55;0.90;;;18.40;99.90;;;;;;4164721;28;20206;-93
2022/06/07 06:30:34;;;;;;;2.42;0.80;;;18.30;99.90;;;;;;4164669;28;20179;-93
2022/06/07 06:32:44;;;;;;;7.32;1.13;;;18.00;99.90;;;;;;4165832;28;20258;-94
2022/06/07 06:34:47;;;;;;;6.30;1.00;;;18.10;99.90;;;;;;4180961;28;20175;-93
2022/06/07 06:36:49;;;;;;;3.08;1.00;;;18.20;99.90;;;;;;4181400;28;20618;-93
2022/06/07 06:38:52;;;;;;;6.80;0.88;;;18.40;99.90;;;;;;4164802;28;20183;-94
2022/06/07 06:40:53;;;;;;;2.45;1.00;;;18.60;99.90;;;;;;4164684;28;20172;-93
2022/06/07 06:42:54;;;;;;;3.60;0.80;;;18.60;99.90;;;;;;4164506;28;20227;-93
2022/06/07 06:45:10;;;;;;;5.88;0.80;;;18.50;99.90;;;;;;4166494;28;20632;-94
2022/06/07 06:47:17;;;;;;;2.63;0.68;;;18.80;99.90;;;;;;4164692;28;20172;-95
2022/06/07 06:49:18;;;;;;;3.50;0.98;;;18.80;99.90;;;;;;4180818;28;20219;-93
2022/06/07 06:51:22;;;;;;;7.88;1.10;;;18.90;99.90;;;;;;4164495;28;20168;-92
2022/06/07 06:53:23;;;;;;;4.22;1.13;;;19.20;99.90;;;;;;4180868;28;20177;-94
2022/06/07 06:55:27;;;;;;;4.15;1.23;;;19.30;99.90;;;;;;4164667;28;20180;-93
2022/06/07 06:57:29;;;;;;;3.10;1.05;;;19.60;99.90;;;;;;4164033;28;20196;-93
2022/06/07 06:59:36;;;;;;;5.63;1.00;;;19.70;99.90;;;;;;4165000;28;20157;-94
2022/06/07 07:01:39;;;;;;;5.85;1.10;;;19.80;99.90;;;;;;4164338;28;20168;-93
2022/06/07 07:03:42;;;;;;;2.83;1.00;;;19.90;99.90;;;;;;4180903;28;20203;-94
2022/06/07 07:05:50;;;;;;;2.08;0.93;;;20.00;99.90;;;;;;4164419;28;20560;-94
2022/06/07 07:07:53;;;;;;;5.10;0.82;;;19.80;99.90;;;;;;4164093;28;20192;-92
2022/06/07 07:09:58;;;;;;;3.80;0.90;;;19.70;99.90;;;;;;4164645;28;20176;-93
2022/06/07 07:11:59;;;;;;;3.33;1.10;;;19.80;99.90;;;;;;4164378;28;20203;-92
2022/06/07 07:14:14;;;;;;;5.72;1.20;;;19.70;99.90;;;;;;4165841;28;20222;-93
2022/06/07 07:16:17;;;;;;;3.45;1.02;;;19.80;99.90;;;;;;4164308;28;20184;-93
2022/06/07 07:18:18;;;;;;;5.88;0.98;;;19.80;99.90;;;;;;4164192;28;20530;-94
2022/06/07 07:20:25;;;;;;;4.10;0.93;;;19.90;99.90;;;;;;4165102;28;20183;-92
2022/06/07 07:22:26;;;;;;;4.50;0.90;;;20.00;99.90;;;;;;4164317;28;20206;-94
2022/06/07 07:24:28;;;;;;;3.45;1.00;;;20.00;99.90;;;;;;4164456;28;20277;-93
2022/06/07 07:26:36;;;;;;;4.25;0.90;;;20.20;99.90;;;;;;4165224;28;20180;-94
2022/06/07 07:28:40;;;;;;;5.75;1.15;;;20.00;99.90;;;;;;4164261;28;20188;-94
2022/06/07 07:30:41;;;;;;;6.30;1.50;;;19.80;99.90;;;;;;4164246;28;20518;-94
2022/06/07 07:32:42;;;;;;;6.78;1.25;;;19.80;99.90;;;;;;4164258;28;20259;-93
2022/06/07 07:34:43;;;;;;;5.60;1.30;;;19.80;99.90;;;;;;4180646;28;20175;-93
2022/06/07 07:36:50;;;;;;;6.05;1.10;;;20.00;99.90;;;;;;4180422;28;20188;-93
2022/06/07 07:38:52;;;;;;;4.07;1.20;;;20.00;99.90;;;;;;4180542;28;20277;-93
2022/06/07 07:40:53;;;;;;;4.57;1.30;;;19.70;99.90;;;;;;4180684;28;20179;-94
2022/06/07 07:42:54;;;;;;;4.22;1.23;;;19.60;99.90;;;;;;4180576;28;20238;-94
2022/06/07 07:45:01;;;;;;;5.22;1.20;;;19.60;99.90;;;;;;4165077;28;20175;-94
2022/06/07 07:47:03;;;;;;;5.63;1.23;;;19.80;99.90;;;;;;4166552;28;20172;-92
2022/06/07 07:49:12;;;;;;;5.28;1.38;;;19.70;99.90;;;;;;4167660;28;20176;-95
2022/06/07 07:51:23;;;;;;;4.90;1.25;;;19.80;99.90;;;;;;4183513;28;20260;-93
2022/06/07 07:53:25;;;;;;;2.78;1.00;;;19.70;99.90;;;;;;4183574;28;20174;-92
2022/06/07 07:55:26;;;;;;;5.72;1.20;;;19.30;99.90;;;;;;4183402;28;20175;-93
2022/06/07 07:57:29;;;;;;;16.08;1.25;;;19.40;99.90;;;;;;4167319;28;20250;-93
2022/06/07 07:59:30;;;;;;;7.05;1.40;;;19.30;99.90;;;;;;4166741;28;20168;-93
2022/06/07 08:01:36;;;;;;;7.28;1.30;;;19.60;99.90;;;;;;4167135;28;20168;-93
2022/06/07 08:03:39;;;;;;;3.53;1.10;;;19.70;99.90;;;;;;4166497;28;20442;-93
2022/06/07 08:05:42;;;;;;;2.83;1.20;;;19.60;99.90;;;;;;4183184;28;20202;-93
2022/06/07 08:07:43;;;;;;;1.48;1.10;;;19.80;99.90;;;;;;4166753;28;20192;-93
2022/06/07 08:09:44;;;;;;;3.40;1.17;;;19.70;99.90;;;;;;4183387;28;20186;-93
2022/06/07 08:11:45;;;;;;;3.72;1.48;;;19.60;99.90;;;;;;4166902;28;20230;-92
2022/06/07 08:13:46;;;;;;;3.90;1.40;;;19.50;99.90;;;;;;4166990;28;20206;-94
2022/06/07 08:15:46;;;;;;;7.22;1.60;;;19.50;99.90;;;;;;4166810;28;20307;-94
2022/06/07 08:17:47;;;;;;;3.00;1.23;;;19.40;99.90;;;;;;4166905;28;20250;-92
2022/06/07 08:19:48;;;;;;;3.47;1.38;;;19.60;99.90;;;;;;4183371;28;20180;-94
2022/06/07 08:21:49;;;;;;;4.65;1.50;;;20.00;99.90;;;;;;4166511;28;20164;-93
2022/06/07 08:23:50;;;;;;;5.15;1.75;;;20.40;99.90;;;;;;4166261;28;20224;-93
2022/06/07 08:25:51;;;;;;;8.10;1.52;;;20.80;99.90;;;;;;4182703;28;20630;-93
2022/06/07 08:27:52;;;;;;;4.13;1.70;;;20.90;99.90;;;;;;4166388;28;20192;-96
2022/06/07 08:29:53;;;;;;;3.15;1.30;;;20.90;99.90;;;;;;4166126;28;20529;-92
2022/06/07 08:31:54;;;;;;;10.63;1.77;;;20.80;99.90;;;;;;4182783;28;20706;-92
2022/06/07 08:38:37;;;;;;;3.45;1.67;;;21.50;99.90;;;;;;4182592;28;20575;-93
2022/06/07 08:40:43;;;;;;;4.55;1.80;;;21.50;99.90;;;;;;4166301;28;20171;-94
2022/06/07 08:42:56;;;;;;;3.83;1.60;;;21.20;99.90;;;;;;4166084;28;20202;-92
2022/06/07 08:45:07;;;;;;;5.47;1.50;;;20.90;99.90;;;;;;4166111;28;20663;-93
2022/06/07 08:47:17;;;;;;;5.63;1.50;;;20.70;99.90;;;;;;4182364;28;20176;-93
2022/06/07 08:49:18;;;;;;;6.38;1.75;;;20.50;99.90;;;;;;4166364;28;20168;-92
2022/06/07 08:51:39;;;;;;;3.65;1.58;;;20.20;99.90;;;;;;4166050;28;20176;-92
2022/06/07 08:53:44;;;;;;;3.70;1.50;;;20.10;99.90;;;;;;4165906;28;20172;-92
2022/06/07 08:55:53;;;;;;;5.20;1.67;;;19.80;99.90;;;;;;4165645;28;20251;-95
2022/06/07 08:58:00;;;;;;;4.35;1.50;;;19.70;99.90;;;;;;4165931;28;20695;-94
2022/06/07 09:00:28;;;;;;;3.20;1.70;;;19.60;99.90;;;;;;4166101;28;20195;-92
2022/06/07 09:02:55;;;;;;;8.52;1.65;;;19.80;99.90;;;;;;4164633;28;20187;-92
2022/06/07 09:04:55;;;;;;;4.07;1.50;;;20.00;99.90;;;;;;4166030;28;20672;-93
2022/06/07 09:07:00;;;;;;;4.35;1.75;;;19.80;99.90;;;;;;4182231;28;20171;-94
2022/06/07 09:09:01;;;;;;;7.75;1.90;;;19.80;99.90;;;;;;4166169;28;20298;-91
2022/06/07 09:13:25;;;;;;;3.58;1.65;;;19.80;99.90;;;;;;4182123;28;20218;-92
2022/06/07 09:15:31;;;;;;;4.15;1.60;;;19.90;99.90;;;;;;4182221;28;20182;-91
2022/06/07 09:17:51;;;;;;;4.85;2.00;;;19.60;99.90;;;;;;4181887;28;20203;-92
2022/06/07 09:19:52;;;;;;;4.15;1.45;;;19.40;99.90;;;;;;4165632;28;20202;-93
2022/06/07 09:21:58;;;;;;;3.80;1.67;;;19.10;99.90;;;;;;4182091;28;20171;-92
2022/06/07 09:23:59;;;;;;;6.47;1.65;;;19.10;99.90;;;;;;4165482;28;20234;-92
2022/06/07 09:26:24;;;;;;;4.35;1.38;;;19.10;99.90;;;;;;4165484;28;20172;-91
2022/06/07 09:28:28;;;;;;;3.38;1.73;;;19.10;99.90;;;;;;4165348;28;20229;-92
2022/06/07 09:30:40;;;;;;;4.75;1.80;;;19.20;99.90;;;;;;4165353;28;20600;-91
2022/06/07 09:32:40;;;;;;;3.47;2.10;;;19.20;99.90;;;;;;4165417;28;20176;-93
2022/06/07 09:34:52;;;;;;;5.70;2.25;;;19.20;99.90;;;;;;4181731;28;20698;-92
2022/06/07 09:37:14;;;;;;;4.45;1.80;;;19.10;99.90;;;;;;4165242;28;20164;-93
2022/06/07 09:39:20;;;;;;;2.15;1.52;;;19.20;99.90;;;;;;4181719;28;20631;-93
2022/06/07 09:41:38;;;;;;;3.72;1.90;;;19.20;99.90;;;;;;4181888;28;20613;-92
2022/06/07 09:43:42;;;;;;;4.05;2.40;;;19.40;99.90;;;;;;4181399;28;20591;-92
2022/06/07 09:45:53;;;;;;;7.57;2.22;;;19.50;99.90;;;;;;4165147;28;20176;-94
2022/06/07 09:47:54;;;;;;;5.00;1.90;;;19.50;99.90;;;;;;4164975;28;20333;-94
2022/06/07 09:49:58;;;;;;;3.35;2.15;;;19.60;99.90;;;;;;4165258;28;20183;-93
2022/06/07 09:52:05;;;;;;;5.68;2.40;;;19.70;99.90;;;;;;4165122;28;20607;-93
2022/06/07 09:54:17;;;;;;;5.72;2.20;;;19.80;99.90;;;;;;4165072;28;20179;-93
2022/06/07 09:56:27;;;;;;;3.65;2.35;;;19.80;99.90;;;;;;4165134;28;20251;-92
2022/06/07 09:58:50;;;;;;;5.97;2.45;;;19.40;99.90;;;;;;4164846;28;20203;-92
2022/06/07 10:01:02;;;;;;;6.15;2.92;;;19.40;99.90;;;;;;4164951;28;20168;-92
2022/06/07 10:03:02;;;;;;;6.97;2.53;;;19.30;99.90;;;;;;4164989;28;20266;-93
2022/06/07 10:05:30;;;;;;;5.95;2.63;;;19.10;99.90;;;;;;4164901;28;20191;-92
2022/06/07 10:08:04;;;;;;;3.90;2.40;;;19.00;99.90;;;;;;4164978;28;20731;-92
2022/06/07 10:10:26;;;;;;;4.15;2.30;;;18.90;99.90;;;;;;4164587;28;20683;-92
2022/06/07 10:13:05;;;;;;;4.45;2.58;;;18.80;99.90;;;;;;4197782;28;20225;-93
2022/06/07 10:15:32;;;;;;;4.18;2.60;;;18.50;99.90;;;;;;4165059;28;20245;-92
2022/06/07 10:17:48;;;;;;;3.92;2.42;;;18.20;99.90;;;;;;4161842;28;20202;-92
2022/06/07 10:20:17;;;;;;;4.63;1.70;;;18.30;99.90;;;;;;4181315;28;20186;-95
2022/06/07 10:22:40;;;;;;;7.25;1.52;;;18.40;99.90;;;;;;4164841;28;20514;-93
2022/06/07 10:24:47;;;;;;;3.33;1.67;;;18.30;99.90;;;;;;4164799;28;20577;-92
2022/06/07 10:27:16;;;;;;;3.72;1.60;;;18.50;99.90;;;;;;4164526;28;20237;-93
2022/06/07 10:29:33;;;;;;;3.70;1.42;;;18.40;99.90;;;;;;4164410;28;20215;-92
2022/06/07 10:31:43;;;;;;;3.25;1.70;;;18.60;99.90;;;;;;4181064;28;20175;-93
2022/06/07 10:33:50;;;;;;;3.22;1.73;;;18.70;99.90;;;;;;4180994;28;20171;-93
2022/06/07 10:36:25;;;;;;;2.58;1.55;;;18.90;99.90;;;;;;4164692;28;20195;-93
2022/06/07 10:39:02;;;;;;;2.45;1.13;;;19.00;99.90;;;;;;4139103;28;20627;-92
2022/06/07 10:41:13;;;;;;;6.10;1.40;;;18.70;99.90;;;;;;4164685;28;20182;-92
2022/06/07 10:43:41;;;;;;;3.58;1.27;;;18.50;99.90;;;;;;4164427;28;20208;-92
2022/06/07 10:45:43;;;;;;;2.08;1.30;;;18.60;99.90;;;;;;4164401;28;20168;-93
2022/06/07 10:48:03;;;;;;;5.28;1.40;;;18.70;99.90;;;;;;4164395;28;20192;-91
2022/06/07 10:50:15;;;;;;;2.70;2.00;;;18.80;99.90;;;;;;4180890;28;20186;-95
2022/06/07 10:52:37;;;;;;;7.05;2.45;;;18.90;99.90;;;;;;4164638;28;20175;-93
2022/06/07 10:54:56;;;;;;;6.25;2.78;;;18.90;99.90;;;;;;4164677;28;20255;-93
2022/06/07 10:57:03;;;;;;;5.13;2.95;;;19.00;99.90;;;;;;4164444;28;20207;-93
2022/06/07 10:59:21;;;;;;;5.22;2.85;;;19.20;99.90;;;;;;4164193;28;20196;-93
2022/06/07 11:01:35;;;;;;;5.95;2.67;;;19.10;99.90;;;;;;4180933;28;20187;-93
2022/06/07 11:09:34;;;;;;;4.75;2.45;;;19.30;99.90;;;;;;4180403;28;20320;-92
2022/06/07 11:11:35;;;;;;;4.18;2.47;;;19.40;99.90;;;;;;4161349;28;20192;-93
2022/06/07 11:13:43;;;;;;;3.42;2.40;;;19.70;99.90;;;;;;4180693;28;20174;-92
2022/06/07 11:16:22;;;;;;;5.95;2.78;;;19.90;99.90;;;;;;4180936;28;20176;-94
2022/06/07 11:18:25;;;;;;;4.47;2.58;;;20.00;99.90;;;;;;4164221;28;20206;-92